sensor_id;sensor_type;location;lat;lon;timestamp;temperature;humidity
54680;DHT22;40578;53.178;5.846;2023-04-01T00:01:40;10.10;99.90
54680;DHT22;40578;53.178;5.846;2023-04-01T00:04:06;10.10;99.90
54680;DHT22;40578;53.178;5.846;2023-04-01T00:06:31;10.10;99.90
54680;DHT22;40578;53.178;5.846;2023-04-01T00:08:57;10.10;99.90
54680;DHT22;40578;53.178;5.846;2023-04-01T00:11:22;10.60;99.90
54680;DHT22;40578;53.178;5.846;2023-04-01T00:13:48;10.10;99.90
54680;DHT22;40578;53.178;5.846;2023-04-01T00:16:14;10.00;99.90
54680;DHT22;40578;53.178;5.846;2023-04-01T00:18:40;10.00;99.90
54680;DHT22;40578;53.178;5.846;2023-04-01T00:21:07;11.20;99.90
54680;DHT22;40578;53.178;5.846;2023-04-01T00:23:33;10.00;99.90
54680;DHT22;40578;53.178;5.846;2023-04-01T00:26:00;10.00;99.90
54680;DHT22;40578;53.178;5.846;2023-04-01T00:28:26;10.10;99.90
54680;DHT22;40578;53.178;5.846;2023-04-01T00:30:52;10.20;99.90
54680;DHT22;40578;53.178;5.846;2023-04-01T00:33:18;10.10;99.90
54680;DHT22;40578;53.178;5.846;2023-04-01T00:35:44;10.50;99.90
54680;DHT22;40578;53.178;5.846;2023-04-01T00:38:10;10.00;99.90
54680;DHT22;40578;53.178;5.846;2023-04-01T00:40:43;10.00;99.90
54680;DHT22;40578;53.178;5.846;2023-04-01T00:43:17;10.00;99.90
54680;DHT22;40578;53.178;5.846;2023-04-01T00:45:46;10.00;99.90
54680;DHT22;40578;53.178;5.846;2023-04-01T00:48:16;10.00;99.90
54680;DHT22;40578;53.178;5.846;2023-04-01T00:50:46;10.00;99.90
54680;DHT22;40578;53.178;5.846;2023-04-01T00:53:14;9.90;99.90
54680;DHT22;40578;53.178;5.846;2023-04-01T00:55:45;10.00;99.90
54680;DHT22;40578;53.178;5.846;2023-04-01T00:58:15;10.00;99.90
54680;DHT22;40578;53.178;5.846;2023-04-01T01:00:42;10.00;99.90
54680;DHT22;40578;53.178;5.846;2023-04-01T01:03:08;9.90;99.90
54680;DHT22;40578;53.178;5.846;2023-04-01T01:11:55;9.80;99.90
54680;DHT22;40578;53.178;5.846;2023-04-01T01:14:53;9.90;99.90
54680;DHT22;40578;53.178;5.846;2023-04-01T01:20:01;9.80;99.90
54680;DHT22;40578;53.178;5.846;2023-04-01T01:25:18;9.90;99.90
54680;DHT22;40578;53.178;5.846;2023-04-01T01:28:18;9.80;99.90
54680;DHT22;40578;53.178;5.846;2023-04-01T01:33:53;9.80;99.90
54680;DHT22;40578;53.178;5.846;2023-04-01T01:36:23;9.90;99.90
54680;DHT22;40578;53.178;5.846;2023-04-01T01:38:51;10.00;99.90
54680;DHT22;40578;53.178;5.846;2023-04-01T01:41:18;9.90;99.90
54680;DHT22;40578;53.178;5.846;2023-04-01T01:43:48;10.00;99.90
54680;DHT22;40578;53.178;5.846;2023-04-01T01:46:19;10.00;99.90
54680;DHT22;40578;53.178;5.846;2023-04-01T01:48:47;10.60;99.90
54680;DHT22;40578;53.178;5.846;2023-04-01T01:51:13;10.00;99.90
54680;DHT22;40578;53.178;5.846;2023-04-01T01:53:39;10.00;99.90
54680;DHT22;40578;53.178;5.846;2023-04-01T01:56:05;10.30;99.90
54680;DHT22;40578;53.178;5.846;2023-04-01T02:01:27;10.00;99.90
54680;DHT22;40578;53.178;5.846;2023-04-01T02:03:53;10.00;99.90
54680;DHT22;40578;53.178;5.846;2023-04-01T02:06:22;10.10;99.90
54680;DHT22;40578;53.178;5.846;2023-04-01T02:11:17;10.60;99.90
54680;DHT22;40578;53.178;5.846;2023-04-01T02:14:11;11.30;99.90
54680;DHT22;40578;53.178;5.846;2023-04-01T02:16:45;10.10;99.90
54680;DHT22;40578;53.178;5.846;2023-04-01T02:19:14;10.20;99.90
54680;DHT22;40578;53.178;5.846;2023-04-01T02:21:42;10.20;99.90
54680;DHT22;40578;53.178;5.846;2023-04-01T02:24:12;10.10;99.90
54680;DHT22;40578;53.178;5.846;2023-04-01T02:26:40;10.00;99.90
54680;DHT22;40578;53.178;5.846;2023-04-01T02:29:07;10.00;99.90
54680;DHT22;40578;53.178;5.846;2023-04-01T02:31:34;10.10;99.90
54680;DHT22;40578;53.178;5.846;2023-04-01T02:34:02;10.00;99.90
54680;DHT22;40578;53.178;5.846;2023-04-01T02:36:28;10.20;99.90
54680;DHT22;40578;53.178;5.846;2023-04-01T02:38:55;10.30;99.90
54680;DHT22;40578;53.178;5.846;2023-04-01T02:41:22;10.00;99.90
54680;DHT22;40578;53.178;5.846;2023-04-01T02:43:47;10.00;99.90
54680;DHT22;40578;53.178;5.846;2023-04-01T02:46:14;10.00;99.90
54680;DHT22;40578;53.178;5.846;2023-04-01T02:48:39;10.00;99.90
54680;DHT22;40578;53.178;5.846;2023-04-01T02:51:05;10.40;99.90
54680;DHT22;40578;53.178;5.846;2023-04-01T02:53:31;10.30;99.90
54680;DHT22;40578;53.178;5.846;2023-04-01T02:55:56;10.10;99.90
54680;DHT22;40578;53.178;5.846;2023-04-01T02:58:22;10.10;99.90
54680;DHT22;40578;53.178;5.846;2023-04-01T03:00:47;10.10;99.90
54680;DHT22;40578;53.178;5.846;2023-04-01T03:03:13;10.10;99.90
54680;DHT22;40578;53.178;5.846;2023-04-01T03:05:39;10.20;99.90
54680;DHT22;40578;53.178;5.846;2023-04-01T03:08:05;10.10;99.90
54680;DHT22;40578;53.178;5.846;2023-04-01T03:10:31;10.10;99.90
54680;DHT22;40578;53.178;5.846;2023-04-01T03:12:57;10.40;99.90
54680;DHT22;40578;53.178;5.846;2023-04-01T03:15:23;10.10;99.90
54680;DHT22;40578;53.178;5.846;2023-04-01T03:17:48;10.20;99.90
54680;DHT22;40578;53.178;5.846;2023-04-01T03:20:15;10.10;99.90
54680;DHT22;40578;53.178;5.846;2023-04-01T03:22:41;10.00;99.90
54680;DHT22;40578;53.178;5.846;2023-04-01T03:25:07;10.20;99.90
54680;DHT22;40578;53.178;5.846;2023-04-01T03:27:34;10.10;99.90
54680;DHT22;40578;53.178;5.846;2023-04-01T03:30:02;10.90;99.90
54680;DHT22;40578;53.178;5.846;2023-04-01T03:32:28;10.00;99.90
54680;DHT22;40578;53.178;5.846;2023-04-01T03:34:54;10.10;99.90
54680;DHT22;40578;53.178;5.846;2023-04-01T03:37:19;10.00;99.90
54680;DHT22;40578;53.178;5.846;2023-04-01T03:39:45;10.00;99.90
54680;DHT22;40578;53.178;5.846;2023-04-01T03:42:11;10.40;99.90
54680;DHT22;40578;53.178;5.846;2023-04-01T03:44:37;10.10;99.90
54680;DHT22;40578;53.178;5.846;2023-04-01T03:47:03;10.00;99.90
54680;DHT22;40578;53.178;5.846;2023-04-01T03:49:28;10.00;99.90
54680;DHT22;40578;53.178;5.846;2023-04-01T03:51:54;10.10;99.90
54680;DHT22;40578;53.178;5.846;2023-04-01T03:54:20;10.00;99.90
54680;DHT22;40578;53.178;5.846;2023-04-01T03:56:46;10.10;99.90
54680;DHT22;40578;53.178;5.846;2023-04-01T03:59:12;10.00;99.90
54680;DHT22;40578;53.178;5.846;2023-04-01T04:01:38;10.00;99.90
54680;DHT22;40578;53.178;5.846;2023-04-01T04:04:03;10.10;99.90
54680;DHT22;40578;53.178;5.846;2023-04-01T04:06:30;10.50;99.90
54680;DHT22;40578;53.178;5.846;2023-04-01T04:08:55;10.10;99.90
54680;DHT22;40578;53.178;5.846;2023-04-01T04:11:21;10.10;99.90
54680;DHT22;40578;53.178;5.846;2023-04-01T04:13:47;10.00;99.90
54680;DHT22;40578;53.178;5.846;2023-04-01T04:16:16;10.10;99.90
54680;DHT22;40578;53.178;5.846;2023-04-01T04:18:42;10.10;99.90
54680;DHT22;40578;53.178;5.846;2023-04-01T04:21:12;10.10;99.90
54680;DHT22;40578;53.178;5.846;2023-04-01T04:23:38;10.10;99.90
54680;DHT22;40578;53.178;5.846;2023-04-01T04:26:05;10.00;99.90
54680;DHT22;40578;53.178;5.846;2023-04-01T04:28:32;10.00;99.90
54680;DHT22;40578;53.178;5.846;2023-04-01T04:30:58;10.10;99.90
54680;DHT22;40578;53.178;5.846;2023-04-01T04:33:24;9.90;99.90
54680;DHT22;40578;53.178;5.846;2023-04-01T04:35:50;9.90;99.90
54680;DHT22;40578;53.178;5.846;2023-04-01T04:38:16;10.20;99.90
54680;DHT22;40578;53.178;5.846;2023-04-01T04:40:43;10.90;99.90
54680;DHT22;40578;53.178;5.846;2023-04-01T04:43:13;9.90;99.90
54680;DHT22;40578;53.178;5.846;2023-04-01T04:45:39;10.70;99.90
54680;DHT22;40578;53.178;5.846;2023-04-01T04:48:06;10.00;99.90
54680;DHT22;40578;53.178;5.846;2023-04-01T04:50:32;10.00;99.90
54680;DHT22;40578;53.178;5.846;2023-04-01T04:52:58;10.10;99.90
54680;DHT22;40578;53.178;5.846;2023-04-01T04:55:23;10.10;99.90
54680;DHT22;40578;53.178;5.846;2023-04-01T04:57:49;10.10;99.90
54680;DHT22;40578;53.178;5.846;2023-04-01T05:00:15;10.00;99.90
54680;DHT22;40578;53.178;5.846;2023-04-01T05:02:40;10.10;99.90
54680;DHT22;40578;53.178;5.846;2023-04-01T05:05:06;10.00;99.90
54680;DHT22;40578;53.178;5.846;2023-04-01T05:07:33;10.00;99.90
54680;DHT22;40578;53.178;5.846;2023-04-01T05:09:59;10.10;99.90
54680;DHT22;40578;53.178;5.846;2023-04-01T05:12:24;10.00;99.90
54680;DHT22;40578;53.178;5.846;2023-04-01T05:14:50;10.10;99.90
54680;DHT22;40578;53.178;5.846;2023-04-01T05:17:16;10.00;99.90
54680;DHT22;40578;53.178;5.846;2023-04-01T05:19:41;10.20;99.90
54680;DHT22;40578;53.178;5.846;2023-04-01T05:22:07;10.30;99.90
54680;DHT22;40578;53.178;5.846;2023-04-01T05:24:33;10.40;99.90
54680;DHT22;40578;53.178;5.846;2023-04-01T05:26:59;10.00;99.90
54680;DHT22;40578;53.178;5.846;2023-04-01T05:29:26;10.10;99.90
54680;DHT22;40578;53.178;5.846;2023-04-01T05:31:52;10.10;99.90
54680;DHT22;40578;53.178;5.846;2023-04-01T05:34:17;10.10;99.90
54680;DHT22;40578;53.178;5.846;2023-04-01T05:36:44;10.60;99.90
54680;DHT22;40578;53.178;5.846;2023-04-01T05:39:10;10.10;99.90
54680;DHT22;40578;53.178;5.846;2023-04-01T05:41:37;10.80;99.90
54680;DHT22;40578;53.178;5.846;2023-04-01T05:44:03;10.10;99.90
54680;DHT22;40578;53.178;5.846;2023-04-01T05:46:29;10.10;99.90
54680;DHT22;40578;53.178;5.846;2023-04-01T05:48:55;10.10;99.90
54680;DHT22;40578;53.178;5.846;2023-04-01T05:51:20;10.20;99.90
54680;DHT22;40578;53.178;5.846;2023-04-01T05:53:47;11.00;99.90
54680;DHT22;40578;53.178;5.846;2023-04-01T05:56:13;11.10;99.90
54680;DHT22;40578;53.178;5.846;2023-04-01T05:58:39;10.20;99.90
54680;DHT22;40578;53.178;5.846;2023-04-01T06:01:10;10.10;99.90
54680;DHT22;40578;53.178;5.846;2023-04-01T06:03:36;10.20;99.90
54680;DHT22;40578;53.178;5.846;2023-04-01T06:06:03;10.10;99.90
54680;DHT22;40578;53.178;5.846;2023-04-01T06:08:31;10.10;99.90
54680;DHT22;40578;53.178;5.846;2023-04-01T06:30:44;10.20;99.90
54680;DHT22;40578;53.178;5.846;2023-04-01T06:33:35;10.20;99.90
54680;DHT22;40578;53.178;5.846;2023-04-01T06:36:33;11.70;99.90
54680;DHT22;40578;53.178;5.846;2023-04-01T06:42:00;10.30;99.90
54680;DHT22;40578;53.178;5.846;2023-04-01T06:44:39;10.20;99.90
54680;DHT22;40578;53.178;5.846;2023-04-01T06:55:24;10.20;99.90
54680;DHT22;40578;53.178;5.846;2023-04-01T06:57:55;11.50;99.90
54680;DHT22;40578;53.178;5.846;2023-04-01T07:05:39;10.20;99.90
54680;DHT22;40578;53.178;5.846;2023-04-01T07:08:09;10.30;99.90
54680;DHT22;40578;53.178;5.846;2023-04-01T07:13:21;10.20;99.90
54680;DHT22;40578;53.178;5.846;2023-04-01T07:16:07;11.50;99.90
54680;DHT22;40578;53.178;5.846;2023-04-01T07:19:00;10.20;99.90
54680;DHT22;40578;53.178;5.846;2023-04-01T07:21:32;10.30;99.90
54680;DHT22;40578;53.178;5.846;2023-04-01T07:24:04;10.70;99.90
54680;DHT22;40578;53.178;5.846;2023-04-01T07:26:31;11.10;99.90
54680;DHT22;40578;53.178;5.846;2023-04-01T07:28:57;10.20;99.90
54680;DHT22;40578;53.178;5.846;2023-04-01T07:36:54;10.40;99.90
54680;DHT22;40578;53.178;5.846;2023-04-01T07:48:10;10.60;99.90
54680;DHT22;40578;53.178;5.846;2023-04-01T07:51:05;10.70;99.90
54680;DHT22;40578;53.178;5.846;2023-04-01T07:53:46;10.70;99.90
54680;DHT22;40578;53.178;5.846;2023-04-01T08:07:13;10.70;99.90
54680;DHT22;40578;53.178;5.846;2023-04-01T08:09:51;10.90;99.90
54680;DHT22;40578;53.178;5.846;2023-04-01T08:15:12;10.70;99.90
54680;DHT22;40578;53.178;5.846;2023-04-01T08:18:08;10.70;99.90
54680;DHT22;40578;53.178;5.846;2023-04-01T08:20:50;10.80;99.90
54680;DHT22;40578;53.178;5.846;2023-04-01T08:23:21;10.90;99.90
54680;DHT22;40578;53.178;5.846;2023-04-01T08:25:56;11.40;99.90
54680;DHT22;40578;53.178;5.846;2023-04-01T08:28:32;10.60;99.90
54680;DHT22;40578;53.178;5.846;2023-04-01T08:31:12;10.70;99.90
54680;DHT22;40578;53.178;5.846;2023-04-01T08:33:39;10.80;99.90
54680;DHT22;40578;53.178;5.846;2023-04-01T08:36:34;10.80;99.90
54680;DHT22;40578;53.178;5.846;2023-04-01T08:39:35;10.90;99.90
54680;DHT22;40578;53.178;5.846;2023-04-01T08:42:03;12.30;99.90
54680;DHT22;40578;53.178;5.846;2023-04-01T08:56:47;11.00;99.90
54680;DHT22;40578;53.178;5.846;2023-04-01T09:02:08;11.10;99.90
54680;DHT22;40578;53.178;5.846;2023-04-01T09:10:57;11.40;99.90
54680;DHT22;40578;53.178;5.846;2023-04-01T09:22:30;11.30;99.90
54680;DHT22;40578;53.178;5.846;2023-04-01T09:28:12;11.30;99.90
54680;DHT22;40578;53.178;5.846;2023-04-01T09:34:20;11.50;99.90
54680;DHT22;40578;53.178;5.846;2023-04-01T09:40:18;11.30;99.90
54680;DHT22;40578;53.178;5.846;2023-04-01T09:43:12;11.40;99.90
54680;DHT22;40578;53.178;5.846;2023-04-01T09:48:37;11.30;99.90
54680;DHT22;40578;53.178;5.846;2023-04-01T09:51:31;11.20;99.90
54680;DHT22;40578;53.178;5.846;2023-04-01T09:54:17;11.30;99.90
54680;DHT22;40578;53.178;5.846;2023-04-01T10:05:33;11.40;99.90
54680;DHT22;40578;53.178;5.846;2023-04-01T10:10:46;11.40;99.90
54680;DHT22;40578;53.178;5.846;2023-04-01T10:13:30;11.30;99.90
54680;DHT22;40578;53.178;5.846;2023-04-01T10:22:17;11.10;99.90
54680;DHT22;40578;53.178;5.846;2023-04-01T10:44:04;10.90;99.90
54680;DHT22;40578;53.178;5.846;2023-04-01T10:47:07;10.90;99.90
54680;DHT22;40578;53.178;5.846;2023-04-01T11:05:16;10.70;99.90
54680;DHT22;40578;53.178;5.846;2023-04-01T11:22:30;10.90;99.90
54680;DHT22;40578;53.178;5.846;2023-04-01T11:25:36;10.80;99.90
54680;DHT22;40578;53.178;5.846;2023-04-01T11:28:23;10.80;99.90
54680;DHT22;40578;53.178;5.846;2023-04-01T11:31:16;10.80;99.90
54680;DHT22;40578;53.178;5.846;2023-04-01T11:34:17;10.80;99.90
54680;DHT22;40578;53.178;5.846;2023-04-01T11:39:57;10.80;99.90
54680;DHT22;40578;53.178;5.846;2023-04-01T11:42:44;10.80;99.90
54680;DHT22;40578;53.178;5.846;2023-04-01T11:55:59;10.80;99.90
54680;DHT22;40578;53.178;5.846;2023-04-01T12:07:03;10.90;99.90
54680;DHT22;40578;53.178;5.846;2023-04-01T12:18:03;11.20;99.90
54680;DHT22;40578;53.178;5.846;2023-04-01T12:21:06;11.10;99.90
54680;DHT22;40578;53.178;5.846;2023-04-01T12:26:38;10.90;99.90
54680;DHT22;40578;53.178;5.846;2023-04-01T12:32:02;12.60;99.90
54680;DHT22;40578;53.178;5.846;2023-04-01T12:34:57;10.90;99.90
54680;DHT22;40578;53.178;5.846;2023-04-01T12:46:01;11.10;99.90
54680;DHT22;40578;53.178;5.846;2023-04-01T12:51:45;11.10;99.90
54680;DHT22;40578;53.178;5.846;2023-04-01T12:54:52;11.20;99.90
54680;DHT22;40578;53.178;5.846;2023-04-01T12:57:53;11.10;99.90
54680;DHT22;40578;53.178;5.846;2023-04-01T13:11:09;10.90;99.90
54680;DHT22;40578;53.178;5.846;2023-04-01T13:22:15;10.90;99.90
54680;DHT22;40578;53.178;5.846;2023-04-01T13:24:53;10.80;99.90
54680;DHT22;40578;53.178;5.846;2023-04-01T13:27:41;10.90;99.90
54680;DHT22;40578;53.178;5.846;2023-04-01T13:30:35;10.80;99.90
54680;DHT22;40578;53.178;5.846;2023-04-01T13:33:27;10.70;99.90
54680;DHT22;40578;53.178;5.846;2023-04-01T13:36:25;10.70;99.90
54680;DHT22;40578;53.178;5.846;2023-04-01T13:39:27;10.60;99.90
54680;DHT22;40578;53.178;5.846;2023-04-01T13:42:27;10.50;99.90
54680;DHT22;40578;53.178;5.846;2023-04-01T13:45:17;10.50;99.90
54680;DHT22;40578;53.178;5.846;2023-04-01T13:47:49;10.60;99.90
54680;DHT22;40578;53.178;5.846;2023-04-01T13:55:53;10.20;99.90
54680;DHT22;40578;53.178;5.846;2023-04-01T13:58:38;10.30;99.90
54680;DHT22;40578;53.178;5.846;2023-04-01T14:07:00;10.20;99.90
54680;DHT22;40578;53.178;5.846;2023-04-01T14:12:32;10.20;99.90
54680;DHT22;40578;53.178;5.846;2023-04-01T14:29:36;10.00;99.90
54680;DHT22;40578;53.178;5.846;2023-04-01T14:35:21;10.00;99.90
54680;DHT22;40578;53.178;5.846;2023-04-01T14:41:09;10.00;99.90
54680;DHT22;40578;53.178;5.846;2023-04-01T14:49:30;10.60;99.90
54680;DHT22;40578;53.178;5.846;2023-04-01T14:54:37;9.70;99.90
54680;DHT22;40578;53.178;5.846;2023-04-01T14:57:32;9.70;99.90
54680;DHT22;40578;53.178;5.846;2023-04-01T15:00:13;10.20;99.90
54680;DHT22;40578;53.178;5.846;2023-04-01T15:03:00;9.70;99.90
54680;DHT22;40578;53.178;5.846;2023-04-01T15:11:32;9.70;99.90
54680;DHT22;40578;53.178;5.846;2023-04-01T15:13:45;9.50;99.90
54680;DHT22;40578;53.178;5.846;2023-04-01T15:16:41;9.50;99.90
54680;DHT22;40578;53.178;5.846;2023-04-01T15:30:21;9.30;99.90
54680;DHT22;40578;53.178;5.846;2023-04-01T15:43:41;9.00;99.90
54680;DHT22;40578;53.178;5.846;2023-04-01T15:57:32;8.90;99.90
54680;DHT22;40578;53.178;5.846;2023-04-01T16:00:30;9.10;99.90
54680;DHT22;40578;53.178;5.846;2023-04-01T16:06:29;8.70;99.90
54680;DHT22;40578;53.178;5.846;2023-04-01T16:09:15;8.70;99.90
54680;DHT22;40578;53.178;5.846;2023-04-01T16:17:26;8.70;99.90
54680;DHT22;40578;53.178;5.846;2023-04-01T16:23:02;8.60;99.90
54680;DHT22;40578;53.178;5.846;2023-04-01T16:25:57;8.50;99.90
54680;DHT22;40578;53.178;5.846;2023-04-01T16:28:42;8.40;99.90
54680;DHT22;40578;53.178;5.846;2023-04-01T16:33:57;8.50;99.90
54680;DHT22;40578;53.178;5.846;2023-04-01T16:36:48;8.50;99.90
54680;DHT22;40578;53.178;5.846;2023-04-01T16:42:30;8.40;99.90
54680;DHT22;40578;53.178;5.846;2023-04-01T16:47:36;8.20;99.90
54680;DHT22;40578;53.178;5.846;2023-04-01T16:50:23;8.20;99.90
54680;DHT22;40578;53.178;5.846;2023-04-01T16:53:00;8.70;99.90
54680;DHT22;40578;53.178;5.846;2023-04-01T16:58:01;8.70;99.90
54680;DHT22;40578;53.178;5.846;2023-04-01T17:00:50;8.00;99.90
54680;DHT22;40578;53.178;5.846;2023-04-01T17:06:22;7.90;99.90
54680;DHT22;40578;53.178;5.846;2023-04-01T17:09:16;7.90;99.90
54680;DHT22;40578;53.178;5.846;2023-04-01T17:11:56;8.00;99.90
54680;DHT22;40578;53.178;5.846;2023-04-01T17:14:46;7.90;99.90
54680;DHT22;40578;53.178;5.846;2023-04-01T17:17:29;7.90;99.90
54680;DHT22;40578;53.178;5.846;2023-04-01T17:22:55;7.80;99.90
54680;DHT22;40578;53.178;5.846;2023-04-01T17:25:44;7.90;99.90
54680;DHT22;40578;53.178;5.846;2023-04-01T17:34:04;7.80;99.90
54680;DHT22;40578;53.178;5.846;2023-04-01T17:45:16;7.60;99.90
54680;DHT22;40578;53.178;5.846;2023-04-01T17:53:52;7.60;99.90
54680;DHT22;40578;53.178;5.846;2023-04-01T18:07:42;7.40;99.90
54680;DHT22;40578;53.178;5.846;2023-04-01T18:10:17;7.20;99.90
54680;DHT22;40578;53.178;5.846;2023-04-01T18:16:02;7.30;99.90
54680;DHT22;40578;53.178;5.846;2023-04-01T18:21:56;7.30;99.90
54680;DHT22;40578;53.178;5.846;2023-04-01T18:24:40;7.30;99.90
54680;DHT22;40578;53.178;5.846;2023-04-01T18:27:39;7.20;99.90
54680;DHT22;40578;53.178;5.846;2023-04-01T18:30:20;7.20;99.90
54680;DHT22;40578;53.178;5.846;2023-04-01T18:32:51;7.20;99.90
54680;DHT22;40578;53.178;5.846;2023-04-01T18:38:36;7.20;99.90
54680;DHT22;40578;53.178;5.846;2023-04-01T18:47:00;7.20;99.90
54680;DHT22;40578;53.178;5.846;2023-04-01T18:49:49;7.20;99.90
54680;DHT22;40578;53.178;5.846;2023-04-01T19:05:40;7.10;99.90
54680;DHT22;40578;53.178;5.846;2023-04-01T19:16:33;7.00;99.90
54680;DHT22;40578;53.178;5.846;2023-04-01T19:21:58;7.00;99.90
54680;DHT22;40578;53.178;5.846;2023-04-01T19:25:10;7.00;99.90
54680;DHT22;40578;53.178;5.846;2023-04-01T19:27:45;6.90;99.90
54680;DHT22;40578;53.178;5.846;2023-04-01T19:33:29;6.90;99.90
54680;DHT22;40578;53.178;5.846;2023-04-01T19:39:17;6.90;99.90
54680;DHT22;40578;53.178;5.846;2023-04-01T19:47:14;6.80;99.90
54680;DHT22;40578;53.178;5.846;2023-04-01T19:52:37;6.90;99.90
54680;DHT22;40578;53.178;5.846;2023-04-01T19:58:37;6.70;99.90
54680;DHT22;40578;53.178;5.846;2023-04-01T20:01:09;6.70;99.90
54680;DHT22;40578;53.178;5.846;2023-04-01T20:03:58;7.00;99.90
54680;DHT22;40578;53.178;5.846;2023-04-01T20:14:51;6.60;99.90
54680;DHT22;40578;53.178;5.846;2023-04-01T20:25:25;6.40;99.90
54680;DHT22;40578;53.178;5.846;2023-04-01T20:36:21;6.40;99.90
54680;DHT22;40578;53.178;5.846;2023-04-01T20:54:58;6.30;99.90
54680;DHT22;40578;53.178;5.846;2023-04-01T21:03:14;6.20;99.90
54680;DHT22;40578;53.178;5.846;2023-04-01T21:08:59;6.20;99.90
54680;DHT22;40578;53.178;5.846;2023-04-01T21:19:55;6.20;99.90
54680;DHT22;40578;53.178;5.846;2023-04-01T21:41:42;6.00;99.90
54680;DHT22;40578;53.178;5.846;2023-04-01T21:44:20;6.10;99.90
54680;DHT22;40578;53.178;5.846;2023-04-01T21:50:06;6.00;99.90
54680;DHT22;40578;53.178;5.846;2023-04-01T21:52:56;6.00;99.90
54680;DHT22;40578;53.178;5.846;2023-04-01T21:58:51;5.90;99.90
54680;DHT22;40578;53.178;5.846;2023-04-01T22:01:52;6.00;99.90
54680;DHT22;40578;53.178;5.846;2023-04-01T22:07:17;5.90;99.90
54680;DHT22;40578;53.178;5.846;2023-04-01T22:09:51;5.90;99.90
54680;DHT22;40578;53.178;5.846;2023-04-01T22:12:30;5.90;99.90
54680;DHT22;40578;53.178;5.846;2023-04-01T22:31:59;5.80;99.90
54680;DHT22;40578;53.178;5.846;2023-04-01T22:34:43;5.80;99.90
54680;DHT22;40578;53.178;5.846;2023-04-01T22:40:23;5.70;99.90
54680;DHT22;40578;53.178;5.846;2023-04-01T22:42:57;5.70;99.90
54680;DHT22;40578;53.178;5.846;2023-04-01T22:48:10;6.30;99.90
54680;DHT22;40578;53.178;5.846;2023-04-01T22:56:37;5.60;99.90
54680;DHT22;40578;53.178;5.846;2023-04-01T22:59:26;5.50;99.90
54680;DHT22;40578;53.178;5.846;2023-04-01T23:02:06;5.40;99.90
54680;DHT22;40578;53.178;5.846;2023-04-01T23:04:38;5.40;99.90
54680;DHT22;40578;53.178;5.846;2023-04-01T23:07:30;5.40;99.90
54680;DHT22;40578;53.178;5.846;2023-04-01T23:09:58;5.50;99.90
54680;DHT22;40578;53.178;5.846;2023-04-01T23:12:27;5.40;99.90
54680;DHT22;40578;53.178;5.846;2023-04-01T23:15:00;5.40;99.90
54680;DHT22;40578;53.178;5.846;2023-04-01T23:23:09;5.30;99.90
54680;DHT22;40578;53.178;5.846;2023-04-01T23:26:10;5.20;99.90
54680;DHT22;40578;53.178;5.846;2023-04-01T23:28:51;5.20;99.90
54680;DHT22;40578;53.178;5.846;2023-04-01T23:31:38;5.10;99.90
54680;DHT22;40578;53.178;5.846;2023-04-01T23:36:53;5.00;99.90
54680;DHT22;40578;53.178;5.846;2023-04-01T23:39:28;5.00;99.90
54680;DHT22;40578;53.178;5.846;2023-04-01T23:42:18;5.00;99.90
54680;DHT22;40578;53.178;5.846;2023-04-01T23:44:45;4.90;99.90
54680;DHT22;40578;53.178;5.846;2023-04-01T23:47:13;4.80;99.90
54680;DHT22;40578;53.178;5.846;2023-04-01T23:49:43;4.80;99.90
54680;DHT22;40578;53.178;5.846;2023-04-01T23:52:25;4.80;99.90
54680;DHT22;40578;53.178;5.846;2023-04-01T23:54:58;4.70;99.90
54680;DHT22;40578;53.178;5.846;2023-04-01T23:57:31;4.60;99.90
